createdAt,value
2022-12-01T03:55:15.029Z,5.55
2022-12-01T04:25:19.179Z,5.25
2022-12-01T04:55:23.392Z,4.97
2022-12-01T05:25:27.488Z,7.70
2022-12-01T05:55:33.641Z,11.23
2022-12-01T06:25:37.741Z,12.05
2022-12-01T06:55:41.882Z,12.25
2022-12-01T07:25:46.056Z,15.13
2022-12-01T07:55:50.830Z,15.00
2022-12-01T08:25:54.964Z,13.27
2022-12-01T08:56:02.023Z,12.15
2022-12-01T09:26:10.860Z,12.43
2022-12-01T09:56:22.191Z,11.45
2022-12-01T10:26:32.859Z,11.77
2022-12-01T10:56:41.236Z,12.35
2022-12-01T11:26:45.474Z,13.70
2022-12-01T11:57:10.669Z,16.05
2022-12-01T12:27:20.635Z,14.82
2022-12-01T12:57:28.563Z,14.80
2022-12-01T13:27:34.428Z,13.90
2022-12-01T13:57:40.287Z,12.48
2022-12-01T14:27:44.758Z,13.20
2022-12-01T14:57:51.176Z,12.50
2022-12-01T15:28:05.126Z,13.30
2022-12-01T15:58:10.418Z,11.20
2022-12-01T16:28:22.035Z,12.05
2022-12-01T16:58:26.403Z,11.43
2022-12-01T17:28:30.570Z,12.50
2022-12-01T17:58:34.764Z,11.00
2022-12-01T18:28:39.300Z,10.63
2022-12-01T18:58:43.610Z,12.50
2022-12-01T19:28:48.318Z,10.93
2022-12-01T19:58:52.626Z,14.25
2022-12-01T20:29:00.304Z,12.00
2022-12-01T20:59:06.041Z,12.02
2022-12-01T21:29:18.893Z,12.75
2022-12-01T21:59:24.351Z,10.40
2022-12-01T22:29:30.673Z,11.10
2022-12-01T22:59:35.836Z,11.30
2022-12-01T23:29:40.103Z,11.73
2022-12-01T23:59:45.150Z,11.93
